sensor_id;sensor_type;location;lat;lon;timestamp;temperature;humidity
40589;DHT22;26297;49.450;6.640;2023-07-02T01:26:43;20.50;99.90
40589;DHT22;26297;49.450;6.640;2023-07-02T01:30:03;20.50;99.90
40589;DHT22;26297;49.450;6.640;2023-07-02T01:44:45;20.50;99.90
40589;DHT22;26297;49.450;6.640;2023-07-02T01:48:00;20.40;99.90
40589;DHT22;26297;49.450;6.640;2023-07-02T01:51:28;20.40;99.90
40589;DHT22;26297;49.450;6.640;2023-07-02T01:55:08;20.40;99.90
40589;DHT22;26297;49.450;6.640;2023-07-02T01:59:02;20.40;99.90
40589;DHT22;26297;49.450;6.640;2023-07-02T02:02:39;20.50;99.90
40589;DHT22;26297;49.450;6.640;2023-07-02T02:09:54;20.40;99.90
40589;DHT22;26297;49.450;6.640;2023-07-02T02:17:11;20.40;99.90
40589;DHT22;26297;49.450;6.640;2023-07-02T02:20:34;20.40;99.90
40589;DHT22;26297;49.450;6.640;2023-07-02T02:24:02;20.40;99.90
40589;DHT22;26297;49.450;6.640;2023-07-02T02:27:31;20.40;99.90
40589;DHT22;26297;49.450;6.640;2023-07-02T02:31:18;20.40;99.90
40589;DHT22;26297;49.450;6.640;2023-07-02T03:49:36;20.30;99.90
40589;DHT22;26297;49.450;6.640;2023-07-02T04:06:05;20.20;99.90
40589;DHT22;26297;49.450;6.640;2023-07-02T04:18:18;20.20;99.90
40589;DHT22;26297;49.450;6.640;2023-07-02T04:21:21;20.20;99.90
40589;DHT22;26297;49.450;6.640;2023-07-02T04:24:24;20.20;99.90
40589;DHT22;26297;49.450;6.640;2023-07-02T04:27:28;20.20;99.90
40589;DHT22;26297;49.450;6.640;2023-07-02T04:30:31;20.20;99.90
40589;DHT22;26297;49.450;6.640;2023-07-02T04:33:34;20.20;99.90
40589;DHT22;26297;49.450;6.640;2023-07-02T04:36:38;20.20;99.90
40589;DHT22;26297;49.450;6.640;2023-07-02T04:39:44;20.20;99.90
40589;DHT22;26297;49.450;6.640;2023-07-02T04:42:48;20.20;99.90
40589;DHT22;26297;49.450;6.640;2023-07-02T04:45:51;20.20;99.90
40589;DHT22;26297;49.450;6.640;2023-07-02T04:48:54;20.20;99.90
40589;DHT22;26297;49.450;6.640;2023-07-02T04:51:57;20.20;99.90
40589;DHT22;26297;49.450;6.640;2023-07-02T04:55:02;20.20;99.90
40589;DHT22;26297;49.450;6.640;2023-07-02T04:58:05;20.20;99.90
40589;DHT22;26297;49.450;6.640;2023-07-02T05:01:11;20.20;99.90
40589;DHT22;26297;49.450;6.640;2023-07-02T05:04:14;20.20;99.90
40589;DHT22;26297;49.450;6.640;2023-07-02T05:07:18;20.20;99.90
40589;DHT22;26297;49.450;6.640;2023-07-02T05:10:21;20.20;99.90
40589;DHT22;26297;49.450;6.640;2023-07-02T05:13:24;20.20;99.90
40589;DHT22;26297;49.450;6.640;2023-07-02T05:16:28;20.20;99.90
40589;DHT22;26297;49.450;6.640;2023-07-02T05:19:31;20.20;99.90
40589;DHT22;26297;49.450;6.640;2023-07-02T05:22:34;20.20;99.90
40589;DHT22;26297;49.450;6.640;2023-07-02T05:25:43;20.20;99.90
40589;DHT22;26297;49.450;6.640;2023-07-02T05:28:51;20.20;99.90
40589;DHT22;26297;49.450;6.640;2023-07-02T05:31:54;20.10;99.90
40589;DHT22;26297;49.450;6.640;2023-07-02T05:34:59;20.20;99.90
40589;DHT22;26297;49.450;6.640;2023-07-02T05:38:03;20.20;99.90
40589;DHT22;26297;49.450;6.640;2023-07-02T05:41:06;20.20;99.90
40589;DHT22;26297;49.450;6.640;2023-07-02T05:44:08;20.20;99.90
40589;DHT22;26297;49.450;6.640;2023-07-02T05:47:12;20.20;99.90
40589;DHT22;26297;49.450;6.640;2023-07-02T05:50:16;20.20;99.90
40589;DHT22;26297;49.450;6.640;2023-07-02T05:53:19;20.20;99.90
40589;DHT22;26297;49.450;6.640;2023-07-02T05:56:23;20.20;99.90
40589;DHT22;26297;49.450;6.640;2023-07-02T05:59:26;20.20;99.90
40589;DHT22;26297;49.450;6.640;2023-07-02T06:02:29;20.20;99.90
40589;DHT22;26297;49.450;6.640;2023-07-02T06:05:33;20.20;99.90
40589;DHT22;26297;49.450;6.640;2023-07-02T06:08:39;20.20;99.90
40589;DHT22;26297;49.450;6.640;2023-07-02T06:11:42;20.20;99.90
40589;DHT22;26297;49.450;6.640;2023-07-02T06:14:45;20.10;99.90
40589;DHT22;26297;49.450;6.640;2023-07-02T06:17:48;20.10;99.90
40589;DHT22;26297;49.450;6.640;2023-07-02T06:20:51;20.20;99.90
40589;DHT22;26297;49.450;6.640;2023-07-02T06:23:56;20.20;99.90
40589;DHT22;26297;49.450;6.640;2023-07-02T06:27:00;20.20;99.90
40589;DHT22;26297;49.450;6.640;2023-07-02T06:30:05;20.20;99.90
40589;DHT22;26297;49.450;6.640;2023-07-02T06:33:09;20.20;99.90
40589;DHT22;26297;49.450;6.640;2023-07-02T06:36:12;20.20;99.90
40589;DHT22;26297;49.450;6.640;2023-07-02T06:39:16;20.20;99.90
40589;DHT22;26297;49.450;6.640;2023-07-02T06:42:20;20.20;99.90
40589;DHT22;26297;49.450;6.640;2023-07-02T06:45:22;20.20;99.90
40589;DHT22;26297;49.450;6.640;2023-07-02T06:48:25;20.20;99.90
40589;DHT22;26297;49.450;6.640;2023-07-02T06:51:29;20.20;99.90
40589;DHT22;26297;49.450;6.640;2023-07-02T06:54:32;20.20;99.90
40589;DHT22;26297;49.450;6.640;2023-07-02T06:57:35;20.20;99.90
40589;DHT22;26297;49.450;6.640;2023-07-02T07:00:38;20.20;99.90
40589;DHT22;26297;49.450;6.640;2023-07-02T07:03:41;20.20;99.90
40589;DHT22;26297;49.450;6.640;2023-07-02T07:06:44;20.20;99.90
40589;DHT22;26297;49.450;6.640;2023-07-02T07:09:47;20.20;99.90
40589;DHT22;26297;49.450;6.640;2023-07-02T07:12:50;20.20;99.90
40589;DHT22;26297;49.450;6.640;2023-07-02T07:15:53;20.20;99.90
40589;DHT22;26297;49.450;6.640;2023-07-02T07:19:00;20.20;99.90
40589;DHT22;26297;49.450;6.640;2023-07-02T07:22:03;20.20;99.90
40589;DHT22;26297;49.450;6.640;2023-07-02T07:25:07;20.20;99.90
40589;DHT22;26297;49.450;6.640;2023-07-02T07:28:11;20.20;99.90
40589;DHT22;26297;49.450;6.640;2023-07-02T07:31:18;20.10;99.90
40589;DHT22;26297;49.450;6.640;2023-07-02T07:34:21;20.10;99.90
40589;DHT22;26297;49.450;6.640;2023-07-02T07:37:24;20.20;99.90
40589;DHT22;26297;49.450;6.640;2023-07-02T07:40:30;20.20;99.90
40589;DHT22;26297;49.450;6.640;2023-07-02T07:43:34;20.20;99.90
40589;DHT22;26297;49.450;6.640;2023-07-02T07:46:37;20.20;99.90
40589;DHT22;26297;49.450;6.640;2023-07-02T07:49:41;20.20;99.90
40589;DHT22;26297;49.450;6.640;2023-07-02T07:52:44;20.20;99.90
40589;DHT22;26297;49.450;6.640;2023-07-02T07:55:48;20.20;99.90
40589;DHT22;26297;49.450;6.640;2023-07-02T07:58:51;20.20;99.90
40589;DHT22;26297;49.450;6.640;2023-07-02T08:01:54;20.20;99.90
40589;DHT22;26297;49.450;6.640;2023-07-02T08:04:57;20.20;99.90
40589;DHT22;26297;49.450;6.640;2023-07-02T08:08:00;20.20;99.90
40589;DHT22;26297;49.450;6.640;2023-07-02T08:11:03;20.20;99.90
40589;DHT22;26297;49.450;6.640;2023-07-02T08:14:06;20.20;99.90
40589;DHT22;26297;49.450;6.640;2023-07-02T08:17:09;20.20;99.90
40589;DHT22;26297;49.450;6.640;2023-07-02T08:20:12;20.20;99.90
40589;DHT22;26297;49.450;6.640;2023-07-02T08:23:16;20.20;99.90
40589;DHT22;26297;49.450;6.640;2023-07-02T08:26:19;20.20;99.90
40589;DHT22;26297;49.450;6.640;2023-07-02T08:29:23;20.20;99.90
40589;DHT22;26297;49.450;6.640;2023-07-02T08:32:26;20.20;99.90
40589;DHT22;26297;49.450;6.640;2023-07-02T08:35:32;20.20;99.90
40589;DHT22;26297;49.450;6.640;2023-07-02T08:38:35;20.20;99.90
40589;DHT22;26297;49.450;6.640;2023-07-02T08:41:42;20.20;99.90
40589;DHT22;26297;49.450;6.640;2023-07-02T08:44:47;20.20;99.90
40589;DHT22;26297;49.450;6.640;2023-07-02T08:47:51;20.20;99.90
40589;DHT22;26297;49.450;6.640;2023-07-02T08:50:56;20.20;99.90
40589;DHT22;26297;49.450;6.640;2023-07-02T08:54:00;20.20;99.90
40589;DHT22;26297;49.450;6.640;2023-07-02T08:57:04;20.20;99.90
40589;DHT22;26297;49.450;6.640;2023-07-02T09:00:11;20.20;99.90
40589;DHT22;26297;49.450;6.640;2023-07-02T09:03:15;20.20;99.90
40589;DHT22;26297;49.450;6.640;2023-07-02T09:06:18;20.20;99.90
40589;DHT22;26297;49.450;6.640;2023-07-02T09:09:22;20.20;99.90
40589;DHT22;26297;49.450;6.640;2023-07-02T09:12:27;20.10;99.90
40589;DHT22;26297;49.450;6.640;2023-07-02T09:15:38;20.20;99.90
40589;DHT22;26297;49.450;6.640;2023-07-02T09:18:58;20.20;99.90
40589;DHT22;26297;49.450;6.640;2023-07-02T09:22:02;20.20;99.90
40589;DHT22;26297;49.450;6.640;2023-07-02T09:25:06;20.20;99.90
40589;DHT22;26297;49.450;6.640;2023-07-02T09:28:21;20.20;99.90
40589;DHT22;26297;49.450;6.640;2023-07-02T09:31:24;20.20;99.90
40589;DHT22;26297;49.450;6.640;2023-07-02T09:34:32;20.20;99.90
40589;DHT22;26297;49.450;6.640;2023-07-02T09:37:35;20.20;99.90
40589;DHT22;26297;49.450;6.640;2023-07-02T09:40:45;20.20;99.90
40589;DHT22;26297;49.450;6.640;2023-07-02T09:43:50;20.20;99.90
40589;DHT22;26297;49.450;6.640;2023-07-02T09:47:07;20.20;99.90
40589;DHT22;26297;49.450;6.640;2023-07-02T09:50:11;20.20;99.90
40589;DHT22;26297;49.450;6.640;2023-07-02T09:53:21;20.30;99.90
40589;DHT22;26297;49.450;6.640;2023-07-02T09:56:25;20.30;99.90
40589;DHT22;26297;49.450;6.640;2023-07-02T09:59:29;20.30;99.90
40589;DHT22;26297;49.450;6.640;2023-07-02T10:02:33;20.30;99.90
40589;DHT22;26297;49.450;6.640;2023-07-02T10:05:36;20.20;99.90
40589;DHT22;26297;49.450;6.640;2023-07-02T10:08:40;20.20;99.90
40589;DHT22;26297;49.450;6.640;2023-07-02T10:11:44;20.20;99.90
40589;DHT22;26297;49.450;6.640;2023-07-02T10:14:49;20.20;99.90
40589;DHT22;26297;49.450;6.640;2023-07-02T10:18:01;20.20;99.90
40589;DHT22;26297;49.450;6.640;2023-07-02T10:21:17;20.20;99.90
40589;DHT22;26297;49.450;6.640;2023-07-02T10:24:20;20.20;99.90
40589;DHT22;26297;49.450;6.640;2023-07-02T10:27:41;20.20;99.90
40589;DHT22;26297;49.450;6.640;2023-07-02T10:30:44;20.20;99.90
40589;DHT22;26297;49.450;6.640;2023-07-02T10:33:49;20.10;99.90
40589;DHT22;26297;49.450;6.640;2023-07-02T10:36:55;20.20;99.90
40589;DHT22;26297;49.450;6.640;2023-07-02T10:39:59;20.20;99.90
40589;DHT22;26297;49.450;6.640;2023-07-02T10:43:02;20.20;99.90
40589;DHT22;26297;49.450;6.640;2023-07-02T10:46:06;20.20;99.90
40589;DHT22;26297;49.450;6.640;2023-07-02T10:49:09;20.20;99.90
40589;DHT22;26297;49.450;6.640;2023-07-02T10:52:14;20.20;99.90
40589;DHT22;26297;49.450;6.640;2023-07-02T10:55:21;20.30;99.90
40589;DHT22;26297;49.450;6.640;2023-07-02T10:58:25;20.30;99.90
40589;DHT22;26297;49.450;6.640;2023-07-02T11:05:01;20.30;99.90
40589;DHT22;26297;49.450;6.640;2023-07-02T11:08:09;20.30;99.90
40589;DHT22;26297;49.450;6.640;2023-07-02T11:11:13;20.30;99.90
40589;DHT22;26297;49.450;6.640;2023-07-02T11:14:26;20.30;99.90
40589;DHT22;26297;49.450;6.640;2023-07-02T11:17:33;20.20;99.90
40589;DHT22;26297;49.450;6.640;2023-07-02T11:24:27;20.20;99.90
40589;DHT22;26297;49.450;6.640;2023-07-02T11:28:01;20.30;99.90
40589;DHT22;26297;49.450;6.640;2023-07-02T11:35:50;20.30;99.90
40589;DHT22;26297;49.450;6.640;2023-07-02T11:39:10;20.30;99.90
40589;DHT22;26297;49.450;6.640;2023-07-02T11:42:44;20.30;99.90
40589;DHT22;26297;49.450;6.640;2023-07-02T11:46:23;20.30;99.90
40589;DHT22;26297;49.450;6.640;2023-07-02T11:49:32;20.30;99.90
40589;DHT22;26297;49.450;6.640;2023-07-02T11:52:35;20.30;99.90
40589;DHT22;26297;49.450;6.640;2023-07-02T11:55:39;20.30;99.90
40589;DHT22;26297;49.450;6.640;2023-07-02T11:58:42;20.30;99.90
40589;DHT22;26297;49.450;6.640;2023-07-02T12:01:45;20.30;99.90
40589;DHT22;26297;49.450;6.640;2023-07-02T12:04:49;20.40;99.90
40589;DHT22;26297;49.450;6.640;2023-07-02T12:07:51;20.30;99.90
40589;DHT22;26297;49.450;6.640;2023-07-02T12:10:55;20.40;99.90
40589;DHT22;26297;49.450;6.640;2023-07-02T12:13:59;20.40;99.90
40589;DHT22;26297;49.450;6.640;2023-07-02T12:17:02;20.40;99.90
40589;DHT22;26297;49.450;6.640;2023-07-02T12:20:12;20.40;99.90
40589;DHT22;26297;49.450;6.640;2023-07-02T12:23:15;20.40;99.90
40589;DHT22;26297;49.450;6.640;2023-07-02T12:26:21;20.40;99.90
40589;DHT22;26297;49.450;6.640;2023-07-02T12:29:24;20.40;99.90
40589;DHT22;26297;49.450;6.640;2023-07-02T12:32:28;20.30;99.90
40589;DHT22;26297;49.450;6.640;2023-07-02T12:35:33;20.40;99.90
40589;DHT22;26297;49.450;6.640;2023-07-02T12:38:36;20.40;99.90
40589;DHT22;26297;49.450;6.640;2023-07-02T12:41:39;20.40;99.90
40589;DHT22;26297;49.450;6.640;2023-07-02T12:44:45;20.40;99.90
40589;DHT22;26297;49.450;6.640;2023-07-02T12:47:55;20.40;99.90
40589;DHT22;26297;49.450;6.640;2023-07-02T12:51:01;20.40;99.90
40589;DHT22;26297;49.450;6.640;2023-07-02T12:54:05;20.40;99.90
40589;DHT22;26297;49.450;6.640;2023-07-02T12:57:09;20.40;99.90
40589;DHT22;26297;49.450;6.640;2023-07-02T13:00:13;20.40;99.90
40589;DHT22;26297;49.450;6.640;2023-07-02T13:03:17;20.50;99.90
40589;DHT22;26297;49.450;6.640;2023-07-02T13:06:20;20.50;99.90
40589;DHT22;26297;49.450;6.640;2023-07-02T13:09:24;20.50;99.90
40589;DHT22;26297;49.450;6.640;2023-07-02T13:12:31;20.40;99.90
40589;DHT22;26297;49.450;6.640;2023-07-02T13:15:37;20.50;99.90
40589;DHT22;26297;49.450;6.640;2023-07-02T13:18:44;20.50;99.90
40589;DHT22;26297;49.450;6.640;2023-07-02T13:25:01;20.50;99.90
40589;DHT22;26297;49.450;6.640;2023-07-02T13:28:10;20.50;99.90
40589;DHT22;26297;49.450;6.640;2023-07-02T13:35:52;20.40;99.90
40589;DHT22;26297;49.450;6.640;2023-07-02T13:39:03;20.50;99.90
40589;DHT22;26297;49.450;6.640;2023-07-02T13:46:39;20.50;99.90
40589;DHT22;26297;49.450;6.640;2023-07-02T13:49:45;20.50;99.90
40589;DHT22;26297;49.450;6.640;2023-07-02T13:53:12;20.50;99.90
40589;DHT22;26297;49.450;6.640;2023-07-02T13:56:21;20.50;99.90
40589;DHT22;26297;49.450;6.640;2023-07-02T13:59:27;20.50;99.90
40589;DHT22;26297;49.450;6.640;2023-07-02T14:02:51;20.50;99.90
40589;DHT22;26297;49.450;6.640;2023-07-02T14:06:12;20.50;99.90
40589;DHT22;26297;49.450;6.640;2023-07-02T14:13:45;20.60;99.90
40589;DHT22;26297;49.450;6.640;2023-07-02T14:16:56;20.60;99.90
40589;DHT22;26297;49.450;6.640;2023-07-02T14:20:00;20.60;99.90
40589;DHT22;26297;49.450;6.640;2023-07-02T14:23:06;20.60;99.90
40589;DHT22;26297;49.450;6.640;2023-07-02T14:35:01;20.70;99.90
40589;DHT22;26297;49.450;6.640;2023-07-02T14:38:04;20.70;99.90
40589;DHT22;26297;49.450;6.640;2023-07-02T14:41:07;20.60;99.90
40589;DHT22;26297;49.450;6.640;2023-07-02T14:44:11;20.60;99.90
40589;DHT22;26297;49.450;6.640;2023-07-02T14:47:26;20.60;99.90
40589;DHT22;26297;49.450;6.640;2023-07-02T14:58:18;20.60;99.90
40589;DHT22;26297;49.450;6.640;2023-07-02T15:01:35;20.70;99.90
40589;DHT22;26297;49.450;6.640;2023-07-02T15:04:43;20.60;99.90
40589;DHT22;26297;49.450;6.640;2023-07-02T15:07:52;20.70;99.90
40589;DHT22;26297;49.450;6.640;2023-07-02T15:11:03;20.70;99.90
40589;DHT22;26297;49.450;6.640;2023-07-02T15:14:06;20.70;99.90
40589;DHT22;26297;49.450;6.640;2023-07-02T15:17:10;20.60;99.90
40589;DHT22;26297;49.450;6.640;2023-07-02T15:20:13;20.70;99.90
40589;DHT22;26297;49.450;6.640;2023-07-02T15:23:16;20.70;99.90
40589;DHT22;26297;49.450;6.640;2023-07-02T15:26:19;20.70;99.90
40589;DHT22;26297;49.450;6.640;2023-07-02T15:29:23;20.60;99.90
40589;DHT22;26297;49.450;6.640;2023-07-02T15:32:29;20.70;99.90
40589;DHT22;26297;49.450;6.640;2023-07-02T15:35:35;20.70;99.90
40589;DHT22;26297;49.450;6.640;2023-07-02T15:38:38;20.70;99.90
40589;DHT22;26297;49.450;6.640;2023-07-02T15:41:42;20.70;99.90
40589;DHT22;26297;49.450;6.640;2023-07-02T15:44:56;20.70;99.90
40589;DHT22;26297;49.450;6.640;2023-07-02T15:48:03;20.70;99.90
40589;DHT22;26297;49.450;6.640;2023-07-02T15:51:07;20.70;99.90
40589;DHT22;26297;49.450;6.640;2023-07-02T15:54:11;20.70;99.90
40589;DHT22;26297;49.450;6.640;2023-07-02T15:57:18;20.70;99.90
40589;DHT22;26297;49.450;6.640;2023-07-02T16:00:22;20.60;99.90
40589;DHT22;26297;49.450;6.640;2023-07-02T16:03:25;20.70;99.90
40589;DHT22;26297;49.450;6.640;2023-07-02T16:06:32;20.70;99.90
40589;DHT22;26297;49.450;6.640;2023-07-02T16:09:36;20.70;99.90
40589;DHT22;26297;49.450;6.640;2023-07-02T16:12:41;20.70;99.90
40589;DHT22;26297;49.450;6.640;2023-07-02T16:15:46;20.70;99.90
40589;DHT22;26297;49.450;6.640;2023-07-02T16:18:50;20.70;99.90
40589;DHT22;26297;49.450;6.640;2023-07-02T16:21:53;20.70;99.90
40589;DHT22;26297;49.450;6.640;2023-07-02T16:24:57;20.70;99.90
40589;DHT22;26297;49.450;6.640;2023-07-02T16:28:00;20.70;99.90
40589;DHT22;26297;49.450;6.640;2023-07-02T16:31:04;20.70;99.90
40589;DHT22;26297;49.450;6.640;2023-07-02T16:34:11;20.70;99.90
40589;DHT22;26297;49.450;6.640;2023-07-02T16:37:15;20.70;99.90
40589;DHT22;26297;49.450;6.640;2023-07-02T16:40:18;20.70;99.90
40589;DHT22;26297;49.450;6.640;2023-07-02T16:43:22;20.70;99.90
40589;DHT22;26297;49.450;6.640;2023-07-02T16:46:36;20.70;99.90
40589;DHT22;26297;49.450;6.640;2023-07-02T16:49:41;20.70;99.90
40589;DHT22;26297;49.450;6.640;2023-07-02T16:53:22;20.80;99.90
40589;DHT22;26297;49.450;6.640;2023-07-02T16:56:36;20.80;99.90
40589;DHT22;26297;49.450;6.640;2023-07-02T16:59:50;20.80;99.90
40589;DHT22;26297;49.450;6.640;2023-07-02T17:08:05;20.80;99.90
40589;DHT22;26297;49.450;6.640;2023-07-02T17:11:17;20.80;99.90
40589;DHT22;26297;49.450;6.640;2023-07-02T17:14:24;20.80;99.90
40589;DHT22;26297;49.450;6.640;2023-07-02T17:21:22;20.80;99.90
40589;DHT22;26297;49.450;6.640;2023-07-02T17:24:32;20.70;99.90
40589;DHT22;26297;49.450;6.640;2023-07-02T17:27:35;20.70;99.90
40589;DHT22;26297;49.450;6.640;2023-07-02T17:31:08;20.70;99.90
40589;DHT22;26297;49.450;6.640;2023-07-02T17:34:16;20.70;99.90
40589;DHT22;26297;49.450;6.640;2023-07-02T17:37:22;20.70;99.90
40589;DHT22;26297;49.450;6.640;2023-07-02T17:40:41;20.70;99.90
40589;DHT22;26297;49.450;6.640;2023-07-02T17:43:44;20.70;99.90
40589;DHT22;26297;49.450;6.640;2023-07-02T17:46:56;20.70;99.90
40589;DHT22;26297;49.450;6.640;2023-07-02T17:50:07;20.70;99.90
40589;DHT22;26297;49.450;6.640;2023-07-02T17:53:27;20.70;99.90
40589;DHT22;26297;49.450;6.640;2023-07-02T17:56:40;20.70;99.90
40589;DHT22;26297;49.450;6.640;2023-07-02T17:59:44;20.70;99.90
40589;DHT22;26297;49.450;6.640;2023-07-02T18:02:49;20.70;99.90
40589;DHT22;26297;49.450;6.640;2023-07-02T18:05:52;20.70;99.90
40589;DHT22;26297;49.450;6.640;2023-07-02T18:08:55;20.70;99.90
40589;DHT22;26297;49.450;6.640;2023-07-02T18:12:01;20.70;99.90
40589;DHT22;26297;49.450;6.640;2023-07-02T18:15:05;20.70;99.90
40589;DHT22;26297;49.450;6.640;2023-07-02T18:18:11;20.70;99.90
40589;DHT22;26297;49.450;6.640;2023-07-02T18:21:15;20.70;99.90
40589;DHT22;26297;49.450;6.640;2023-07-02T18:24:18;20.70;99.90
40589;DHT22;26297;49.450;6.640;2023-07-02T18:32:07;20.70;99.90
40589;DHT22;26297;49.450;6.640;2023-07-02T18:35:13;20.70;99.90
40589;DHT22;26297;49.450;6.640;2023-07-02T18:42:08;20.70;99.90
40589;DHT22;26297;49.450;6.640;2023-07-02T18:45:26;20.70;99.90
40589;DHT22;26297;49.450;6.640;2023-07-02T18:48:32;20.60;99.90
40589;DHT22;26297;49.450;6.640;2023-07-02T18:51:42;20.60;99.90
40589;DHT22;26297;49.450;6.640;2023-07-02T18:54:57;20.70;99.90
40589;DHT22;26297;49.450;6.640;2023-07-02T18:58:34;20.70;99.90
40589;DHT22;26297;49.450;6.640;2023-07-02T19:01:41;20.70;99.90
40589;DHT22;26297;49.450;6.640;2023-07-02T19:04:53;20.70;99.90
40589;DHT22;26297;49.450;6.640;2023-07-02T19:07:57;20.70;99.90
40589;DHT22;26297;49.450;6.640;2023-07-02T19:11:01;20.70;99.90
40589;DHT22;26297;49.450;6.640;2023-07-02T19:14:05;20.70;99.90
40589;DHT22;26297;49.450;6.640;2023-07-02T19:17:10;20.70;99.90
40589;DHT22;26297;49.450;6.640;2023-07-02T19:20:14;20.70;99.90
40589;DHT22;26297;49.450;6.640;2023-07-02T19:23:19;20.70;99.90
40589;DHT22;26297;49.450;6.640;2023-07-02T19:26:22;20.70;99.90
40589;DHT22;26297;49.450;6.640;2023-07-02T19:29:25;20.70;99.90
40589;DHT22;26297;49.450;6.640;2023-07-02T19:32:29;20.70;99.90
40589;DHT22;26297;49.450;6.640;2023-07-02T19:35:37;20.60;99.90
40589;DHT22;26297;49.450;6.640;2023-07-02T19:38:41;20.60;99.90
40589;DHT22;26297;49.450;6.640;2023-07-02T19:41:45;20.60;99.90
40589;DHT22;26297;49.450;6.640;2023-07-02T19:44:56;20.60;99.90
40589;DHT22;26297;49.450;6.640;2023-07-02T19:47:59;20.70;99.90
40589;DHT22;26297;49.450;6.640;2023-07-02T19:51:04;20.70;99.90
40589;DHT22;26297;49.450;6.640;2023-07-02T19:54:07;20.70;99.90
40589;DHT22;26297;49.450;6.640;2023-07-02T19:57:14;20.70;99.90
40589;DHT22;26297;49.450;6.640;2023-07-02T20:15:13;20.70;99.90
40589;DHT22;26297;49.450;6.640;2023-07-02T20:23:07;20.70;99.90
40589;DHT22;26297;49.450;6.640;2023-07-02T20:26:50;20.70;99.90
40589;DHT22;26297;49.450;6.640;2023-07-02T20:38:25;20.70;99.90
40589;DHT22;26297;49.450;6.640;2023-07-02T20:41:54;20.70;99.90
40589;DHT22;26297;49.450;6.640;2023-07-02T20:45:07;20.70;99.90
40589;DHT22;26297;49.450;6.640;2023-07-02T20:48:39;20.70;99.90
40589;DHT22;26297;49.450;6.640;2023-07-02T20:51:58;20.70;99.90
40589;DHT22;26297;49.450;6.640;2023-07-02T20:55:43;20.70;99.90
40589;DHT22;26297;49.450;6.640;2023-07-02T20:59:31;20.60;99.90
40589;DHT22;26297;49.450;6.640;2023-07-02T21:02:54;20.60;99.90
40589;DHT22;26297;49.450;6.640;2023-07-02T21:06:33;20.60;99.90
40589;DHT22;26297;49.450;6.640;2023-07-02T22:10:04;20.60;99.90
40589;DHT22;26297;49.450;6.640;2023-07-02T22:13:34;20.60;99.90
40589;DHT22;26297;49.450;6.640;2023-07-02T22:28:07;20.60;99.90
40589;DHT22;26297;49.450;6.640;2023-07-02T22:31:28;20.60;99.90
40589;DHT22;26297;49.450;6.640;2023-07-02T22:35:10;20.60;99.90
40589;DHT22;26297;49.450;6.640;2023-07-02T22:39:06;20.60;99.90
40589;DHT22;26297;49.450;6.640;2023-07-02T22:47:06;20.60;99.90
40589;DHT22;26297;49.450;6.640;2023-07-02T22:54:21;20.50;99.90
40589;DHT22;26297;49.450;6.640;2023-07-02T22:57:58;20.60;99.90
40589;DHT22;26297;49.450;6.640;2023-07-02T23:05:05;20.60;99.90
40589;DHT22;26297;49.450;6.640;2023-07-02T23:19:51;20.60;99.90
40589;DHT22;26297;49.450;6.640;2023-07-02T23:27:13;20.60;99.90
40589;DHT22;26297;49.450;6.640;2023-07-02T23:34:38;20.60;99.90
40589;DHT22;26297;49.450;6.640;2023-07-02T23:37:58;20.60;99.90
40589;DHT22;26297;49.450;6.640;2023-07-02T23:44:58;20.50;99.90
40589;DHT22;26297;49.450;6.640;2023-07-02T23:52:26;20.60;99.90
40589;DHT22;26297;49.450;6.640;2023-07-02T23:59:44;20.50;99.90
